createdAt,value
2022-09-22T00:00:57.144Z,50.70
2022-09-22T00:06:06.798Z,54.38
2022-09-22T00:11:17.197Z,52.33
2022-09-22T00:16:14.322Z,55.05
2022-09-22T00:21:15.150Z,59.40
2022-09-22T00:26:12.576Z,56.75
2022-09-22T00:31:10.181Z,57.13
2022-09-22T00:36:07.010Z,55.25
2022-09-22T00:41:04.296Z,55.05
2022-09-22T00:46:21.556Z,57.00
2022-09-22T00:51:20.376Z,54.38
2022-09-22T00:56:25.060Z,54.47
2022-09-22T01:01:21.462Z,54.70
2022-09-22T01:06:19.054Z,54.33
2022-09-22T01:11:17.340Z,58.78
2022-09-22T01:16:38.991Z,58.55
2022-09-22T01:21:40.367Z,58.35
2022-09-22T01:26:55.957Z,59.38
2022-09-22T01:32:10.762Z,58.63
2022-09-22T01:37:09.783Z,58.90
2022-09-22T01:42:11.394Z,55.97
2022-09-22T01:47:10.519Z,58.10
2022-09-22T01:52:11.564Z,55.95
2022-09-22T01:57:19.627Z,60.58
2022-09-22T02:02:22.470Z,56.67
2022-09-22T02:07:30.954Z,57.22
2022-09-22T02:12:27.294Z,54.05
2022-09-22T02:17:23.707Z,58.83
2022-09-22T02:22:20.767Z,57.35
2022-09-22T02:27:25.375Z,57.83
2022-09-22T02:32:22.246Z,56.75
2022-09-22T02:37:21.472Z,58.33
2022-09-22T02:42:26.900Z,59.83
2022-09-22T02:47:28.926Z,61.83
2022-09-22T02:52:25.311Z,59.60
2022-09-22T02:57:21.587Z,62.60
2022-09-22T03:02:17.931Z,63.80
2022-09-22T03:07:14.274Z,64.45
2022-09-22T03:12:10.579Z,62.20
2022-09-22T03:17:06.776Z,66.60
2022-09-22T03:22:02.987Z,67.03
2022-09-22T03:26:59.206Z,65.90
2022-09-22T03:31:55.408Z,65.43
2022-09-22T03:36:51.846Z,64.35
2022-09-22T03:41:48.068Z,68.70
2022-09-22T03:46:44.926Z,63.33
2022-09-22T03:51:41.137Z,67.43
2022-09-22T03:56:38.261Z,62.53
2022-09-22T04:01:34.489Z,65.10
2022-09-22T04:06:31.094Z,65.63
2022-09-22T04:11:27.304Z,63.17
2022-09-22T04:16:23.577Z,67.30
2022-09-22T04:21:19.768Z,64.68
2022-09-22T04:26:16.131Z,65.35
2022-09-22T04:31:12.490Z,69.10
2022-09-22T04:36:08.939Z,65.68
2022-09-22T04:41:05.797Z,69.68
2022-09-22T04:46:02.242Z,66.30
2022-09-22T04:50:58.461Z,71.20
2022-09-22T04:55:56.440Z,67.10
2022-09-22T05:00:54.724Z,69.65
2022-09-22T05:05:50.973Z,70.40
2022-09-22T05:10:47.254Z,71.18
2022-09-22T05:15:43.556Z,67.90
2022-09-22T05:20:39.806Z,69.38
2022-09-22T05:25:35.992Z,68.97
2022-09-22T05:30:32.226Z,70.13
2022-09-22T05:35:30.821Z,69.00
2022-09-22T05:40:31.001Z,66.18
2022-09-22T05:45:27.286Z,69.90
2022-09-22T05:50:23.907Z,70.63
2022-09-22T05:55:20.245Z,73.78
2022-09-22T06:00:16.503Z,71.78
2022-09-22T06:05:16.109Z,71.55
2022-09-22T06:10:13.821Z,72.20
2022-09-22T06:15:10.144Z,72.75
2022-09-22T06:20:08.159Z,81.47
2022-09-22T06:25:04.619Z,81.40
2022-09-22T06:30:00.825Z,81.32
2022-09-22T06:34:59.735Z,86.50
2022-09-22T06:39:56.004Z,88.75
2022-09-22T06:44:53.366Z,92.72
2022-09-22T06:49:49.619Z,91.47
2022-09-22T06:54:45.922Z,97.60
2022-09-22T06:59:42.263Z,99.38
2022-09-22T07:04:38.500Z,99.03
2022-09-22T07:09:34.692Z,107.68
2022-09-22T07:14:31.141Z,110.15
2022-09-22T07:19:27.443Z,109.03
2022-09-22T07:24:23.683Z,116.85
2022-09-22T07:29:19.958Z,113.82
2022-09-22T07:34:18.081Z,120.90
2022-09-22T07:39:14.313Z,118.18
2022-09-22T07:44:29.995Z,120.38
2022-09-22T07:49:26.298Z,116.75
2022-09-22T07:54:23.081Z,119.80
2022-09-22T07:59:19.524Z,114.07
2022-09-22T08:04:26.283Z,107.35
2022-09-22T08:09:23.210Z,100.03
2022-09-22T08:14:23.413Z,93.43
2022-09-22T08:19:21.747Z,71.35
2022-09-22T08:24:21.398Z,62.72
2022-09-22T08:29:17.743Z,52.92
2022-09-22T08:34:16.189Z,38.22
2022-09-22T08:39:12.872Z,30.35
2022-09-22T08:44:10.576Z,26.77
2022-09-22T08:49:30.723Z,24.27
2022-09-22T08:54:35.242Z,23.30
2022-09-22T08:59:51.968Z,21.08
2022-09-22T09:05:06.877Z,18.77
2022-09-22T09:10:03.140Z,18.75
2022-09-22T09:15:25.960Z,16.67
2022-09-22T09:20:39.926Z,15.90
2022-09-22T09:25:40.399Z,14.88
2022-09-22T09:30:43.022Z,13.18
2022-09-22T09:40:38.420Z,12.15
2022-09-22T09:45:44.555Z,9.70
2022-09-22T09:50:40.869Z,9.32
2022-09-22T09:55:37.162Z,8.85
2022-09-22T10:00:34.973Z,8.65
2022-09-22T10:05:32.404Z,10.65
2022-09-22T10:10:28.648Z,9.23
2022-09-22T10:15:25.816Z,8.52
2022-09-22T10:20:23.535Z,8.02
2022-09-22T10:25:27.277Z,8.18
2022-09-22T10:30:23.954Z,7.97
2022-09-22T10:35:28.872Z,8.32
2022-09-22T10:40:26.062Z,10.00
2022-09-22T10:45:28.701Z,7.53
2022-09-22T10:50:55.209Z,7.82
2022-09-22T10:55:57.206Z,7.28
2022-09-22T11:01:13.775Z,6.70
2022-09-22T11:06:46.575Z,6.45
2022-09-22T11:12:01.520Z,7.07
2022-09-22T11:17:16.667Z,8.00
2022-09-22T11:22:12.960Z,6.85
2022-09-22T11:27:13.870Z,6.50
2022-09-22T11:32:19.448Z,7.20
2022-09-22T11:37:28.017Z,7.05
2022-09-22T11:42:29.359Z,6.40
2022-09-22T11:47:28.575Z,7.07
2022-09-22T11:52:24.771Z,8.90
2022-09-22T11:57:23.703Z,8.23
2022-09-22T12:02:27.096Z,7.30
2022-09-22T12:07:32.967Z,10.27
2022-09-22T12:12:31.309Z,7.20
2022-09-22T12:17:40.365Z,7.43
2022-09-22T12:22:56.993Z,7.32
2022-09-22T12:27:55.655Z,8.70
2022-09-22T12:32:52.026Z,11.95
2022-09-22T12:37:53.221Z,9.60
2022-09-22T12:42:51.055Z,7.03
2022-09-22T12:47:52.536Z,6.70
2022-09-22T12:52:50.386Z,8.45
2022-09-22T12:57:47.356Z,7.13
2022-09-22T13:02:45.967Z,7.20
2022-09-22T13:07:42.947Z,6.75
2022-09-22T13:12:39.277Z,7.75
2022-09-22T13:17:40.971Z,7.18
2022-09-22T13:22:37.510Z,6.78
2022-09-22T13:27:33.762Z,11.02
2022-09-22T13:32:30.075Z,9.38
2022-09-22T13:37:26.578Z,6.10
2022-09-22T13:42:22.854Z,7.25
2022-09-22T13:47:23.908Z,7.07
2022-09-22T13:52:30.454Z,6.57
2022-09-22T13:57:28.671Z,6.55
2022-09-22T14:02:31.302Z,6.90
2022-09-22T14:07:30.587Z,6.85
2022-09-22T14:12:29.995Z,8.07
2022-09-22T14:17:28.554Z,7.40
2022-09-22T14:22:26.378Z,7.50
2022-09-22T14:27:32.437Z,7.97
2022-09-22T14:32:37.226Z,7.25
2022-09-22T14:37:39.059Z,8.23
2022-09-22T14:42:35.976Z,6.93
2022-09-22T14:47:39.191Z,7.35
2022-09-22T14:52:37.063Z,7.80
2022-09-22T14:57:34.386Z,6.63
2022-09-22T15:02:33.758Z,7.25
2022-09-22T15:07:31.211Z,6.63
2022-09-22T15:12:47.458Z,6.78
2022-09-22T15:18:07.630Z,8.68
2022-09-22T15:23:04.580Z,7.40
2022-09-22T15:28:01.714Z,6.63
2022-09-22T15:32:58.114Z,6.75
2022-09-22T15:37:55.390Z,7.20
2022-09-22T15:43:11.832Z,7.63
2022-09-22T15:48:08.651Z,6.50
2022-09-22T15:53:04.908Z,8.27
2022-09-22T15:58:07.252Z,8.88
2022-09-22T16:03:05.635Z,7.10
2022-09-22T16:08:02.166Z,7.88
2022-09-22T16:12:59.173Z,7.50
2022-09-22T16:17:55.468Z,7.65
2022-09-22T16:22:51.681Z,8.32
2022-09-22T16:27:47.956Z,8.20
2022-09-22T16:32:44.206Z,7.65
2022-09-22T16:37:40.432Z,7.35
2022-09-22T16:42:39.035Z,7.60
2022-09-22T16:47:35.263Z,7.47
2022-09-22T16:52:32.154Z,7.93
2022-09-22T16:57:28.392Z,7.60
2022-09-22T17:02:26.175Z,7.88
2022-09-22T17:07:24.139Z,7.68
2022-09-22T17:12:26.040Z,8.00
2022-09-22T17:17:22.503Z,7.60
2022-09-22T17:22:20.268Z,7.80
2022-09-22T17:27:17.333Z,7.65
2022-09-22T17:32:14.623Z,7.55
2022-09-22T17:37:13.975Z,7.70
2022-09-22T17:42:10.924Z,7.90
2022-09-22T17:47:25.709Z,9.13
2022-09-22T17:52:40.725Z,8.07
2022-09-22T17:57:41.208Z,7.88
2022-09-22T18:02:38.678Z,8.30
2022-09-22T18:07:36.595Z,8.52
2022-09-22T18:12:34.110Z,8.90
2022-09-22T18:17:31.945Z,9.68
2022-09-22T18:22:29.349Z,9.68
2022-09-22T18:27:27.035Z,10.45
2022-09-22T18:32:23.415Z,9.65
2022-09-22T18:37:20.475Z,10.20
2022-09-22T18:42:17.782Z,10.32
2022-09-22T18:47:16.167Z,11.40
2022-09-22T18:52:12.407Z,11.30
2022-09-22T18:57:13.167Z,11.20
2022-09-22T19:02:11.813Z,10.82
2022-09-22T19:07:26.718Z,11.68
2022-09-22T19:12:22.938Z,11.98
2022-09-22T19:17:19.751Z,11.70
2022-09-22T19:22:16.542Z,12.52
2022-09-22T19:27:14.742Z,12.10
2022-09-22T19:32:11.023Z,12.90
2022-09-22T19:37:07.568Z,13.75
2022-09-22T19:42:03.826Z,13.95
2022-09-22T19:47:00.154Z,14.30
2022-09-22T19:51:56.422Z,14.48
2022-09-22T19:56:52.671Z,14.52
2022-09-22T20:01:48.933Z,15.30
2022-09-22T20:06:46.260Z,14.38
2022-09-22T20:11:43.566Z,14.25
2022-09-22T20:16:41.658Z,14.82
2022-09-22T20:21:42.322Z,15.90
2022-09-22T20:26:38.693Z,14.77
2022-09-22T20:31:36.128Z,15.75
2022-09-22T20:36:36.620Z,16.52
2022-09-22T20:41:33.451Z,16.58
2022-09-22T20:46:29.740Z,18.25
2022-09-22T20:51:26.323Z,18.17
2022-09-22T20:56:23.535Z,18.80
2022-09-22T21:01:19.882Z,18.42
2022-09-22T21:06:17.815Z,19.85
2022-09-22T21:11:15.155Z,20.65
2022-09-22T21:16:13.752Z,20.13
2022-09-22T21:21:10.132Z,19.27
2022-09-22T21:26:07.839Z,20.90
2022-09-22T21:31:05.615Z,21.38
2022-09-22T21:36:05.151Z,21.60
2022-09-22T21:41:02.325Z,20.88
2022-09-22T21:46:04.374Z,20.65
2022-09-22T21:51:03.452Z,22.55
2022-09-22T21:56:04.313Z,22.30
2022-09-22T22:01:04.927Z,21.88
2022-09-22T22:06:12.517Z,23.02
2022-09-22T22:11:13.005Z,22.70
2022-09-22T22:16:11.287Z,22.55
2022-09-22T22:21:09.524Z,22.30
2022-09-22T22:26:13.289Z,22.02
2022-09-22T22:31:11.235Z,23.60
2022-09-22T22:36:08.585Z,23.08
2022-09-22T22:41:06.678Z,21.50
2022-09-22T22:46:03.501Z,22.83
2022-09-22T22:51:00.532Z,21.30
2022-09-22T22:56:00.235Z,20.90
2022-09-22T23:01:01.109Z,22.95
2022-09-22T23:05:58.509Z,22.85
2022-09-22T23:11:05.246Z,21.00
2022-09-22T23:16:02.623Z,21.27
2022-09-22T23:20:58.882Z,21.48
2022-09-22T23:25:55.163Z,20.30
2022-09-22T23:31:04.447Z,19.35
2022-09-22T23:36:01.346Z,18.75
2022-09-22T23:40:58.374Z,20.52
2022-09-22T23:45:55.014Z,20.20
2022-09-22T23:50:53.198Z,19.23
2022-09-22T23:55:49.867Z,20.83
